Rick Husband Amarillo International Airport
KAMA : rendu visible

Aérodrome :











RETROUVEZ-NOUS SUR...

 
LOGIN :

S'inscrire | Disclaimer

   EN    FR    IT 

 









Légende :    VFR   VFR Marginal   IFR   IFR Intensif   IFR Très Intensif
Visi : 
Plafond : 
>= 8 km
>= 3000ft
5 à 8 km
1000 à 3000 ft
1500m à 5 km
500 à 1000 ft
800 à 1500m
200 à 500 ft
< 800m
< 200 ft
Symboles :   Orages  Brouillard  Fortes neiges  Fortes précipitations  Vent > 20 kt






- Altitude de l'aérodrome : 3607 ft
- Code IATA : AMA


KAMA - Rick Husband Amarillo International

DERNIER METAR :
  • 010253Z 06014KT 10SM CLR 19/02 A3019 RMK AO2 SLP182 T01890022 53023

METARs EXPIRÉS :
  • 010153Z 07010KT 10SM CLR 21/01 A3016 RMK AO2 SLP177 T02060011
  • 010053Z 06011KT 10SM CLR 23/01 A3014 RMK AO2 SLP171 T02330011

TAF KAMA
Valide du 01 à 00h jusqu'au 02 à 00h UTC


302352Z 0100/0124 07011KT P6SM SKC
FM012100 09009KT P6SM SKC
FIR KZAB / Amérique du Nord



MET'MAP, la Météo Aéronautique d'un coup d'oeil ! - Copyright ORBIFLY Décembre 2007 - Disclaimer

ORBIFLY MET'MAP TEAM :

Programmation & Développement : Alexandra Zaïnal
Sur une idée originale de : Baudouin d'Aumeries
Assistance à la programmation : Marc-Olivier Méhu
Soutien technique & logistique : Manuel Goepfert

Contact : metmap@orbifly.com




SOURCES & CREDITS :

   NOAA       Earth
Advisory